Terminal Aerodrome Forecast
Issued by NWS Milwaukee/Sullivan, WI

Home | Current Version | Previous Version | Text Only | Print | Product List | Glossary On
Versions: 1 2 3 4 5 6 7 8 9 10 11 12 13 14 15 16 17 18 19 20 21 22 23 24 25 26 27 28 29 30 31 32 33 34 35 36 37 38 39 40 41 42 43 44 45 46 47 48 49 50
000
FTUS43 KMKX 302329
TAFMSN
TAF
KMSN 302329Z 3100/3124 28005KT P6SM SCT040
     FM310300 VRB03KT P6SM SKC
     FM310800 VRB03KT 1 1/2SM BR SCT060
     FM311000 VRB03KT 1/2SM FG SCT005
      TEMPO 3110/3113 BKN005
     FM311300 15004KT 1 1/2SM BR SCT008
     FM311500 18005KT P6SM SCT025
     FM312100 21008KT P6SM SCT030 SCT100=

USA.gov is the U.S. government's official web portal to all federal, state and local government web resources and services.